createdAt,value
2017-11-21T00:00:42.468Z,1006.4
2017-11-21T00:01:52.179Z,1006.29
2017-11-21T00:03:01.626Z,1006.22
2017-11-21T00:04:11.072Z,1006.16
2017-11-21T00:05:20.516Z,1006.12
2017-11-21T00:06:30.225Z,1006.14
2017-11-21T00:07:39.693Z,1006.15
2017-11-21T00:08:49.662Z,1006.13
2017-11-21T00:09:59.353Z,1006.12
2017-11-21T00:11:08.817Z,1006.11
2017-11-21T00:12:18.531Z,1006.1
2017-11-21T00:13:28.235Z,1006.1
2017-11-21T00:14:38.213Z,1006.07
2017-11-21T00:15:48.187Z,1006.1
2017-11-21T00:16:57.896Z,1006.07
2017-11-21T00:18:07.879Z,1006.03
2017-11-21T00:19:17.865Z,1006.03
2017-11-21T00:20:27.846Z,1005.99
2017-11-21T00:21:37.576Z,1006.03
2017-11-21T00:22:47.568Z,1006
2017-11-21T00:23:57.551Z,1006.02
2017-11-21T00:25:07.255Z,1005.98
2017-11-21T00:26:16.710Z,1006
2017-11-21T00:27:26.677Z,1006.01
2017-11-21T00:28:36.659Z,1005.99
2017-11-21T00:29:46.356Z,1005.93
2017-11-21T00:30:56.327Z,1005.92
2017-11-21T00:32:06.304Z,1005.89
2017-11-21T00:33:16.280Z,1005.87
2017-11-21T00:34:25.979Z,1005.87
2017-11-21T00:35:35.987Z,1005.89
2017-11-21T00:36:45.692Z,1005.94
2017-11-21T00:37:55.658Z,1005.93
2017-11-21T00:39:05.384Z,1006
2017-11-21T00:40:15.091Z,1006.03
2017-11-21T00:41:24.779Z,1006.02
2017-11-21T00:42:34.228Z,1006.05
2017-11-21T00:43:44.198Z,1006.04
2017-11-21T00:44:54.168Z,1006
2017-11-21T00:46:04.139Z,1005.98
2017-11-21T00:47:13.587Z,1005.98
2017-11-21T00:48:23.306Z,1005.95
2017-11-21T00:49:33.017Z,1005.97
2017-11-21T00:50:42.737Z,1005.99
2017-11-21T00:51:52.704Z,1005.93
2017-11-21T00:53:02.687Z,1005.89
2017-11-21T00:54:12.664Z,1005.94
2017-11-21T00:55:22.363Z,1005.93
2017-11-21T00:56:32.343Z,1005.91
2017-11-21T00:57:42.331Z,1005.86
2017-11-21T00:58:51.787Z,1005.86
2017-11-21T01:00:01.503Z,1005.91
2017-11-21T01:01:11.481Z,1005.84
2017-11-21T01:02:21.178Z,1005.83
2017-11-21T01:03:30.614Z,1005.8
2017-11-21T01:04:40.059Z,1005.8
2017-11-21T01:05:49.234Z,1005.81
2017-11-21T01:06:59.218Z,1005.78
2017-11-21T01:08:09.174Z,1005.79
2017-11-21T01:09:19.136Z,1005.8
2017-11-21T01:10:29.120Z,1005.78
2017-11-21T01:11:38.823Z,1005.72
2017-11-21T01:12:48.526Z,1005.76
2017-11-21T01:13:58.493Z,1005.78
2017-11-21T01:15:08.467Z,1005.72
2017-11-21T01:16:17.925Z,1005.69
2017-11-21T01:17:27.914Z,1005.75
2017-11-21T01:18:37.886Z,1005.75
2017-11-21T01:19:48.060Z,1005.69
2017-11-21T01:20:57.765Z,1005.7
2017-11-21T01:22:07.728Z,1005.62
2017-11-21T01:23:17.689Z,1005.67
2017-11-21T01:24:27.650Z,1005.63
2017-11-21T01:25:37.655Z,1005.62
2017-11-21T01:26:47.625Z,1005.61
2017-11-21T01:27:57.333Z,1005.53
2017-11-21T01:29:07.298Z,1005.56
2017-11-21T01:30:17.263Z,1005.56
2017-11-21T01:31:26.697Z,1005.53
2017-11-21T01:32:36.680Z,1005.46
2017-11-21T01:33:46.141Z,1005.46
2017-11-21T01:34:55.837Z,1005.43
2017-11-21T01:36:05.534Z,1005.45
2017-11-21T01:37:15.243Z,1005.49
2017-11-21T01:38:24.946Z,1005.45
2017-11-21T01:39:35.012Z,1005.46
2017-11-21T01:40:44.467Z,1005.45
2017-11-21T01:41:54.435Z,1005.5
2017-11-21T01:43:04.153Z,1005.52
2017-11-21T01:44:13.856Z,1005.51
2017-11-21T01:45:23.309Z,1005.5
2017-11-21T01:46:33.257Z,1005.48
2017-11-21T01:47:43.242Z,1005.51
2017-11-21T01:48:52.695Z,1005.48
2017-11-21T01:50:02.661Z,1005.47
2017-11-21T01:51:12.645Z,1005.42
2017-11-21T01:52:22.609Z,1005.45
2017-11-21T01:53:32.315Z,1005.44
2017-11-21T01:54:42.291Z,1005.41
2017-11-21T01:55:52.251Z,1005.41
2017-11-21T01:57:02.216Z,1005.42
2017-11-21T01:58:12.177Z,1005.44
2017-11-21T01:59:21.880Z,1005.49
2017-11-21T02:00:31.850Z,1005.46
2017-11-21T02:01:41.559Z,1005.43
2017-11-21T02:02:51.263Z,1005.5
2017-11-21T02:04:01.237Z,1005.47
2017-11-21T02:05:11.511Z,1005.49
2017-11-21T02:06:20.690Z,1005.49
2017-11-21T02:07:30.656Z,1005.52
2017-11-21T02:08:40.352Z,1005.48
2017-11-21T02:09:50.322Z,1005.5
2017-11-21T02:11:00.296Z,1005.53
2017-11-21T02:12:10.009Z,1005.54
2017-11-21T02:13:19.994Z,1005.57
2017-11-21T02:14:29.961Z,1005.5
2017-11-21T02:15:39.673Z,1005.51
2017-11-21T02:16:49.110Z,1005.47
2017-11-21T02:17:58.840Z,1005.38
2017-11-21T02:19:08.819Z,1005.37
2017-11-21T02:20:18.520Z,1005.28
2017-11-21T02:21:28.491Z,1005.29
2017-11-21T02:22:38.200Z,1005.18
2017-11-21T02:23:48.185Z,1005.19
2017-11-21T02:24:58.154Z,1005.21
2017-11-21T02:26:07.880Z,1005.21
2017-11-21T02:27:17.603Z,1005.2
2017-11-21T02:28:27.317Z,1005.21
2017-11-21T02:29:37.039Z,1005.17
2017-11-21T02:30:47.019Z,1005.1
2017-11-21T02:31:57.024Z,1005.09
2017-11-21T02:33:06.997Z,1005.07
2017-11-21T02:34:16.988Z,1005.06
2017-11-21T02:35:26.701Z,1005.08
2017-11-21T02:36:36.434Z,1005.01
2017-11-21T02:37:46.406Z,1004.99
2017-11-21T02:38:55.857Z,1005
2017-11-21T02:40:05.882Z,1005.04
2017-11-21T02:41:16.070Z,1005.02
2017-11-21T02:42:26.100Z,1005.01
2017-11-21T02:43:35.689Z,1005.03
2017-11-21T02:44:45.718Z,1005.04
2017-11-21T02:45:55.592Z,1005.1
2017-11-21T02:47:05.130Z,1005.05
2017-11-21T02:48:15.096Z,1005.05
2017-11-21T02:49:24.810Z,1005.07
2017-11-21T02:50:34.551Z,1005.03
2017-11-21T02:51:44.520Z,1005.04
2017-11-21T02:52:54.239Z,1005.01
2017-11-21T02:54:04.212Z,1004.98
2017-11-21T02:55:13.944Z,1004.91
2017-11-21T02:56:23.132Z,1004.94
2017-11-21T02:57:33.089Z,1004.9
2017-11-21T02:58:43.043Z,1004.92
2017-11-21T02:59:53.010Z,1004.92
2017-11-21T03:01:02.990Z,1004.9
2017-11-21T03:02:12.962Z,1004.93
2017-11-21T03:03:22.406Z,1004.95
2017-11-21T03:04:32.371Z,1005
2017-11-21T03:05:41.547Z,1004.99
2017-11-21T03:06:51.508Z,1004.98
2017-11-21T03:08:01.216Z,1005
2017-11-21T03:09:11.185Z,1005.04
2017-11-21T03:10:20.625Z,1005.02
2017-11-21T03:11:30.590Z,1005.02
2017-11-21T03:12:40.292Z,1004.98
2017-11-21T03:13:49.471Z,1004.93
2017-11-21T03:14:59.440Z,1005.01
2017-11-21T03:16:08.630Z,1004.98
2017-11-21T03:17:18.625Z,1004.95
2017-11-21T03:18:28.625Z,1004.99
2017-11-21T03:19:38.324Z,1005.02
2017-11-21T03:20:48.287Z,1005.04
2017-11-21T03:21:58.257Z,1005.09
2017-11-21T03:23:08.219Z,1005.12
2017-11-21T03:24:17.914Z,1005.14
2017-11-21T03:25:27.625Z,1005.08
2017-11-21T03:26:37.323Z,1005.1
2017-11-21T03:27:46.784Z,1005.05
2017-11-21T03:28:56.781Z,1005.05
2017-11-21T03:30:06.755Z,1005.07
2017-11-21T03:31:16.728Z,1005.07
2017-11-21T03:32:25.920Z,1005
2017-11-21T03:33:35.618Z,1004.95
2017-11-21T03:34:45.852Z,1004.84
2017-11-21T03:35:55.812Z,1004.86
2017-11-21T03:37:05.518Z,1004.76
2017-11-21T03:38:15.494Z,1004.72
2017-11-21T03:39:25.201Z,1004.81
2017-11-21T03:40:34.915Z,1004.83
2017-11-21T03:41:44.874Z,1004.83
2017-11-21T03:42:54.829Z,1004.85
2017-11-21T03:44:04.545Z,1004.85
2017-11-21T03:45:14.243Z,1004.91
2017-11-21T03:46:24.202Z,1004.9
2017-11-21T03:47:34.158Z,1004.89
2017-11-21T03:48:44.128Z,1004.83
2017-11-21T03:49:54.096Z,1004.83
2017-11-21T03:51:04.063Z,1004.8
2017-11-21T03:52:13.990Z,1004.77
2017-11-21T03:53:23.429Z,1004.77
2017-11-21T03:54:33.403Z,1004.77
2017-11-21T03:55:43.099Z,1004.76
2017-11-21T03:56:52.804Z,1004.75
2017-11-21T03:58:02.505Z,1004.71
2017-11-21T03:59:12.469Z,1004.7
2017-11-21T04:00:22.164Z,1004.67
2017-11-21T04:01:31.862Z,1004.66
2017-11-21T04:02:41.825Z,1004.65
2017-11-21T04:03:51.273Z,1004.59
2017-11-21T04:05:01.226Z,1004.52
2017-11-21T04:06:11.200Z,1004.5
2017-11-21T04:07:21.196Z,1004.49
2017-11-21T04:08:31.163Z,1004.48
2017-11-21T04:09:41.121Z,1004.49
2017-11-21T04:10:50.833Z,1004.44
2017-11-21T04:12:00.268Z,1004.46
2017-11-21T04:13:09.991Z,1004.5
2017-11-21T04:14:19.688Z,1004.45
2017-11-21T04:15:29.396Z,1004.46
2017-11-21T04:16:39.382Z,1004.45
2017-11-21T04:17:49.069Z,1004.45
2017-11-21T04:18:58.788Z,1004.47
2017-11-21T04:20:08.764Z,1004.48
2017-11-21T04:21:18.470Z,1004.5
2017-11-21T04:22:28.175Z,1004.53
2017-11-21T04:23:37.876Z,1004.54
2017-11-21T04:24:47.593Z,1004.61
2017-11-21T04:25:57.771Z,1004.64
2017-11-21T04:27:07.739Z,1004.62
2017-11-21T04:28:17.694Z,1004.59
2017-11-21T04:29:27.665Z,1004.64
2017-11-21T04:30:37.359Z,1004.66
2017-11-21T04:31:46.539Z,1004.72
2017-11-21T04:32:56.518Z,1004.8
2017-11-21T04:34:06.288Z,1004.87
2017-11-21T04:35:16.265Z,1004.92
2017-11-21T04:36:25.963Z,1004.87
2017-11-21T04:37:35.933Z,1004.91
2017-11-21T04:38:46.136Z,1004.93
2017-11-21T04:39:55.590Z,1004.95
2017-11-21T04:41:05.554Z,1004.95
2017-11-21T04:42:15.511Z,1004.97
2017-11-21T04:43:25.218Z,1004.95
2017-11-21T04:44:34.942Z,1004.94
2017-11-21T04:45:44.387Z,1004.96
2017-11-21T04:46:54.357Z,1005
2017-11-21T04:48:04.070Z,1005.02
2017-11-21T04:49:13.511Z,1005
2017-11-21T04:50:23.485Z,1005
2017-11-21T04:51:33.455Z,1004.98
2017-11-21T04:52:42.627Z,1004.98
2017-11-21T04:53:52.075Z,1004.93
2017-11-21T04:55:01.793Z,1004.91
2017-11-21T04:56:11.776Z,1004.88
2017-11-21T04:57:21.745Z,1004.87
2017-11-21T04:58:31.445Z,1004.84
2017-11-21T04:59:41.142Z,1004.86
2017-11-21T05:00:51.096Z,1004.83
2017-11-21T05:02:01.087Z,1004.78
2017-11-21T05:03:10.793Z,1004.79
2017-11-21T05:04:20.496Z,1004.85
2017-11-21T05:05:30.202Z,1004.8
2017-11-21T05:06:40.167Z,1004.86
2017-11-21T05:07:50.129Z,1004.83
2017-11-21T05:08:59.304Z,1004.83
2017-11-21T05:10:09.025Z,1004.87
2017-11-21T05:11:18.991Z,1004.86
2017-11-21T05:12:28.696Z,1004.9
2017-11-21T05:13:38.437Z,1004.89
2017-11-21T05:14:48.394Z,1004.85
2017-11-21T05:15:57.838Z,1004.84
2017-11-21T05:17:07.805Z,1004.79
2017-11-21T05:18:17.762Z,1004.74
2017-11-21T05:19:27.201Z,1004.74
2017-11-21T05:20:36.894Z,1004.68
2017-11-21T05:21:46.609Z,1004.66
2017-11-21T05:22:56.597Z,1004.59
2017-11-21T05:24:06.573Z,1004.64
2017-11-21T05:25:16.285Z,1004.63
2017-11-21T05:26:26.256Z,1004.61
2017-11-21T05:27:35.960Z,1004.62
2017-11-21T05:28:45.675Z,1004.63
2017-11-21T05:29:55.373Z,1004.58
2017-11-21T05:31:05.100Z,1004.6
2017-11-21T05:32:14.554Z,1004.59
2017-11-21T05:33:24.515Z,1004.54
2017-11-21T05:34:34.484Z,1004.52
2017-11-21T05:35:44.186Z,1004.54
2017-11-21T05:36:54.155Z,1004.51
2017-11-21T05:38:04.241Z,1004.49
2017-11-21T05:39:14.217Z,1004.48
2017-11-21T05:40:24.199Z,1004.44
2017-11-21T05:41:33.639Z,1004.43
2017-11-21T05:42:43.344Z,1004.42
2017-11-21T05:43:53.311Z,1004.35
2017-11-21T05:45:03.009Z,1004.38
2017-11-21T05:46:12.970Z,1004.34
2017-11-21T05:47:22.929Z,1004.34
2017-11-21T05:48:32.368Z,1004.31
2017-11-21T05:49:42.373Z,1004.27
2017-11-21T05:50:52.331Z,1004.29
2017-11-21T05:52:02.038Z,1004.29
2017-11-21T05:53:12.010Z,1004.29
2017-11-21T05:54:21.981Z,1004.28
2017-11-21T05:55:31.945Z,1004.38
2017-11-21T05:56:41.643Z,1004.34
2017-11-21T05:57:51.364Z,1004.4
2017-11-21T05:59:01.078Z,1004.37
2017-11-21T06:00:11.076Z,1004.38
2017-11-21T06:01:21.082Z,1004.32
2017-11-21T06:02:31.056Z,1004.33
2017-11-21T06:03:40.769Z,1004.39
2017-11-21T06:04:50.507Z,1004.37
2017-11-21T06:06:00.225Z,1004.34
2017-11-21T06:07:09.664Z,1004.3
2017-11-21T06:08:19.362Z,1004.33
2017-11-21T06:09:28.818Z,1004.26
2017-11-21T06:10:38.527Z,1004.26
2017-11-21T06:11:48.227Z,1004.2
2017-11-21T06:12:58.193Z,1004.24
2017-11-21T06:14:08.158Z,1004.3
2017-11-21T06:15:17.855Z,1004.28
2017-11-21T06:16:27.585Z,1004.32
2017-11-21T06:17:37.551Z,1004.3
2017-11-21T06:18:47.266Z,1004.3
2017-11-21T06:19:56.969Z,1004.31
2017-11-21T06:21:06.932Z,1004.3
2017-11-21T06:22:16.899Z,1004.3
2017-11-21T06:23:26.611Z,1004.28
2017-11-21T06:24:36.570Z,1004.32
2017-11-21T06:25:46.275Z,1004.32
2017-11-21T06:26:55.978Z,1004.31
2017-11-21T06:28:05.949Z,1004.28
2017-11-21T06:29:15.688Z,1004.34
2017-11-21T06:30:25.134Z,1004.31
2017-11-21T06:31:35.130Z,1004.31
2017-11-21T06:32:44.573Z,1004.27
2017-11-21T06:33:54.533Z,1004.33
2017-11-21T06:35:04.516Z,1004.37
2017-11-21T06:36:14.256Z,1004.4
2017-11-21T06:37:24.224Z,1004.41
2017-11-21T06:38:34.193Z,1004.42
2017-11-21T06:39:43.912Z,1004.38
2017-11-21T06:40:53.604Z,1004.38
2017-11-21T06:42:03.342Z,1004.39
2017-11-21T06:43:13.072Z,1004.37
2017-11-21T06:44:23.093Z,1004.4
2017-11-21T06:45:33.061Z,1004.44
2017-11-21T06:46:42.499Z,1004.41
2017-11-21T06:47:52.472Z,1004.4
2017-11-21T06:49:02.179Z,1004.41
2017-11-21T06:50:12.140Z,1004.45
2017-11-21T06:51:22.125Z,1004.48
2017-11-21T06:52:32.095Z,1004.47
2017-11-21T06:53:42.104Z,1004.45
2017-11-21T06:54:52.060Z,1004.45
2017-11-21T06:56:02.025Z,1004.38
2017-11-21T06:57:12.007Z,1004.39
2017-11-21T06:58:21.446Z,1004.37
2017-11-21T06:59:31.174Z,1004.35
2017-11-21T07:00:41.163Z,1004.33
2017-11-21T07:01:50.875Z,1004.35
2017-11-21T07:03:00.336Z,1004.38
2017-11-21T07:04:10.309Z,1004.41
2017-11-21T07:05:20.038Z,1004.41
2017-11-21T07:06:29.733Z,1004.48
2017-11-21T07:07:39.438Z,1004.48
2017-11-21T07:08:48.631Z,1004.45
2017-11-21T07:09:58.347Z,1004.52
2017-11-21T07:11:08.087Z,1004.51
2017-11-21T07:12:18.076Z,1004.53
2017-11-21T07:13:28.095Z,1004.54
2017-11-21T07:14:37.812Z,1004.54
2017-11-21T07:15:47.540Z,1004.63
2017-11-21T07:16:57.489Z,1004.57
2017-11-21T07:18:07.198Z,1004.6
2017-11-21T07:19:17.163Z,1004.61
2017-11-21T07:20:26.878Z,1004.62
2017-11-21T07:21:36.596Z,1004.57
2017-11-21T07:22:46.308Z,1004.56
2017-11-21T07:23:56.294Z,1004.58
2017-11-21T07:25:06.278Z,1004.53
2017-11-21T07:26:15.729Z,1004.56
2017-11-21T07:27:25.709Z,1004.52
2017-11-21T07:28:35.146Z,1004.53
2017-11-21T07:29:44.592Z,1004.58
2017-11-21T07:30:54.088Z,1004.6
2017-11-21T07:32:04.070Z,1004.59
2017-11-21T07:33:14.060Z,1004.61
2017-11-21T07:34:23.501Z,1004.66
2017-11-21T07:35:33.468Z,1004.68
2017-11-21T07:36:43.163Z,1004.64
2017-11-21T07:37:53.122Z,1004.7
2017-11-21T07:39:02.846Z,1004.65
2017-11-21T07:40:12.815Z,1004.65
2017-11-21T07:41:22.531Z,1004.68
2017-11-21T07:42:32.253Z,1004.69
2017-11-21T07:43:42.228Z,1004.7
2017-11-21T07:44:51.682Z,1004.71
2017-11-21T07:46:00.889Z,1004.73
2017-11-21T07:47:10.904Z,1004.72
2017-11-21T07:48:20.619Z,1004.7
2017-11-21T07:49:30.090Z,1004.71
2017-11-21T07:50:39.836Z,1004.68
2017-11-21T07:51:49.867Z,1004.68
2017-11-21T07:52:59.836Z,1004.69
2017-11-21T07:54:09.574Z,1004.66
2017-11-21T07:55:19.582Z,1004.6
2017-11-21T07:56:29.554Z,1004.63
2017-11-21T07:57:39.568Z,1004.62
2017-11-21T07:58:49.576Z,1004.63
2017-11-21T07:59:59.299Z,1004.64
2017-11-21T08:01:09.664Z,1004.6
2017-11-21T08:02:19.649Z,1004.59
2017-11-21T08:03:29.412Z,1004.55
2017-11-21T08:04:39.163Z,1004.55
2017-11-21T08:05:49.171Z,1004.59
2017-11-21T08:06:58.641Z,1004.55
2017-11-21T08:08:08.621Z,1004.55
2017-11-21T08:09:18.237Z,1004.49
2017-11-21T08:10:28.213Z,1004.49
2017-11-21T08:11:37.936Z,1004.51
2017-11-21T08:12:47.646Z,1004.48
2017-11-21T08:13:57.122Z,1004.47
2017-11-21T08:15:06.867Z,1004.51
2017-11-21T08:16:16.571Z,1004.49
2017-11-21T08:17:26.537Z,1004.48
2017-11-21T08:18:35.973Z,1004.48
2017-11-21T08:19:45.944Z,1004.53
2017-11-21T08:20:55.938Z,1004.59
2017-11-21T08:22:05.660Z,1004.58
2017-11-21T08:23:15.365Z,1004.59
2017-11-21T08:24:25.445Z,1004.61
2017-11-21T08:25:35.183Z,1004.57
2017-11-21T08:26:45.185Z,1004.61
2017-11-21T08:27:55.170Z,1004.65
2017-11-21T08:29:04.874Z,1004.69
2017-11-21T08:30:14.862Z,1004.68
2017-11-21T08:31:24.605Z,1004.69
2017-11-21T08:32:33.796Z,1004.7
2017-11-21T08:33:43.793Z,1004.68
2017-11-21T08:34:53.514Z,1004.69
2017-11-21T08:36:03.490Z,1004.65
2017-11-21T08:37:13.212Z,1004.69
2017-11-21T08:38:23.179Z,1004.71
2017-11-21T08:39:32.896Z,1004.71
2017-11-21T08:40:42.375Z,1004.75
2017-11-21T08:41:52.385Z,1004.78
2017-11-21T08:43:02.490Z,1004.79
2017-11-21T08:44:12.235Z,1004.81
2017-11-21T08:45:21.941Z,1004.78
2017-11-21T08:46:31.663Z,1004.82
2017-11-21T08:47:41.637Z,1004.84
2017-11-21T08:48:51.648Z,1004.84
2017-11-21T08:50:01.101Z,1004.85
2017-11-21T08:51:10.835Z,1004.78
2017-11-21T08:52:20.823Z,1004.83
2017-11-21T08:53:30.568Z,1004.88
2017-11-21T08:54:40.534Z,1004.82
2017-11-21T08:55:50.245Z,1004.81
2017-11-21T08:57:00.227Z,1004.82
2017-11-21T08:58:09.687Z,1004.89
2017-11-21T08:59:19.145Z,1004.86
2017-11-21T09:00:29.155Z,1004.88
2017-11-21T09:01:38.871Z,1004.91
2017-11-21T09:02:48.386Z,1004.86
2017-11-21T09:03:58.370Z,1004.84
2017-11-21T09:05:08.108Z,1004.86
2017-11-21T09:06:17.842Z,1004.8
2017-11-21T09:07:27.298Z,1004.8
2017-11-21T09:08:37.291Z,1004.84
2017-11-21T09:09:46.996Z,1004.82
2017-11-21T09:10:56.721Z,1004.83
2017-11-21T09:12:06.444Z,1004.83
2017-11-21T09:13:15.909Z,1004.81
2017-11-21T09:14:25.883Z,1004.85
2017-11-21T09:15:35.595Z,1004.82
2017-11-21T09:16:45.296Z,1004.88
2017-11-21T09:17:55.044Z,1004.84
2017-11-21T09:19:04.763Z,1004.85
2017-11-21T09:20:14.759Z,1004.87
2017-11-21T09:21:24.734Z,1004.78
2017-11-21T09:22:34.439Z,1004.84
2017-11-21T09:23:43.908Z,1004.84
2017-11-21T09:24:53.622Z,1004.88
2017-11-21T09:26:03.339Z,1004.87
2017-11-21T09:27:13.057Z,1004.89
2017-11-21T09:28:23.105Z,1004.85
2017-11-21T09:29:32.841Z,1004.86
2017-11-21T09:30:42.594Z,1004.88
2017-11-21T09:31:52.560Z,1004.9
2017-11-21T09:33:02.585Z,1004.87
2017-11-21T09:34:12.035Z,1004.89
2017-11-21T09:35:22.029Z,1004.88
2017-11-21T09:36:31.761Z,1004.86
2017-11-21T09:37:41.525Z,1004.85
2017-11-21T09:38:51.239Z,1004.84
2017-11-21T09:40:01.235Z,1004.86
2017-11-21T09:41:11.286Z,1004.85
2017-11-21T09:42:21.273Z,1004.91
2017-11-21T09:43:31.004Z,1004.85
2017-11-21T09:44:40.727Z,1004.87
2017-11-21T09:45:50.488Z,1004.85
2017-11-21T09:46:59.945Z,1004.89
2017-11-21T09:48:09.688Z,1004.92
2017-11-21T09:49:19.419Z,1004.96
2017-11-21T09:50:29.136Z,1004.94
2017-11-21T09:51:38.902Z,1004.97
2017-11-21T09:52:48.901Z,1004.99
2017-11-21T09:53:58.890Z,1005
2017-11-21T09:55:08.865Z,1004.97
2017-11-21T09:56:18.834Z,1004.98
2017-11-21T09:57:28.811Z,1004.88
2017-11-21T09:58:38.545Z,1004.89
2017-11-21T09:59:48.539Z,1004.91
2017-11-21T10:00:58.039Z,1004.9
2017-11-21T10:02:07.775Z,1004.9
2017-11-21T10:03:17.218Z,1004.91
2017-11-21T10:04:26.940Z,1004.85
2017-11-21T10:05:36.932Z,1004.91
2017-11-21T10:06:47.039Z,1004.92
2017-11-21T10:07:57.054Z,1004.9
2017-11-21T10:09:07.078Z,1004.89
2017-11-21T10:10:17.306Z,1004.88
2017-11-21T10:11:27.328Z,1004.85
2017-11-21T10:12:36.780Z,1004.85
2017-11-21T10:13:46.264Z,1004.87
2017-11-21T10:14:56.256Z,1004.89
2017-11-21T10:16:06.254Z,1004.89
2017-11-21T10:17:16.265Z,1004.89
2017-11-21T10:18:26.003Z,1004.88
2017-11-21T10:19:35.983Z,1004.89
2017-11-21T10:20:46.203Z,1004.87
2017-11-21T10:21:56.212Z,1004.88
2017-11-21T10:23:06.196Z,1004.89
2017-11-21T10:24:15.121Z,1004.89
2017-11-21T10:25:24.584Z,1004.89
2017-11-21T10:26:34.311Z,1004.88
2017-11-21T10:27:44.059Z,1004.84
2017-11-21T10:28:53.801Z,1004.86
2017-11-21T10:30:03.556Z,1004.84
2017-11-21T10:31:13.297Z,1004.86
2017-11-21T10:32:23.274Z,1004.84
2017-11-21T10:33:32.726Z,1004.9
2017-11-21T10:34:42.182Z,1004.88
2017-11-21T10:35:51.695Z,1004.87
2017-11-21T10:37:01.457Z,1004.86
2017-11-21T10:38:11.191Z,1004.87
2017-11-21T10:39:20.646Z,1004.84
2017-11-21T10:40:30.382Z,1004.86
2017-11-21T10:41:40.373Z,1004.85
2017-11-21T10:42:50.449Z,1004.84
2017-11-21T10:44:00.222Z,1004.81
2017-11-21T10:45:09.666Z,1004.8
2017-11-21T10:46:19.617Z,1004.82
2017-11-21T10:47:29.091Z,1004.79
2017-11-21T10:48:39.063Z,1004.82
2017-11-21T10:49:49.057Z,1004.82
2017-11-21T10:50:59.051Z,1004.82
2017-11-21T10:52:09.056Z,1004.83
2017-11-21T10:53:19.037Z,1004.85
2017-11-21T10:54:28.749Z,1004.85
2017-11-21T10:55:38.480Z,1004.87
2017-11-21T10:56:47.931Z,1004.88
2017-11-21T10:57:57.416Z,1004.87
2017-11-21T10:59:06.896Z,1004.94
2017-11-21T11:00:18.093Z,1004.89
2017-11-21T11:01:27.806Z,1004.93
2017-11-21T11:02:37.275Z,1004.95
2017-11-21T11:03:47.022Z,1004.92
2017-11-21T11:04:56.773Z,1004.89
2017-11-21T11:06:06.232Z,1004.86
2017-11-21T11:07:15.705Z,1004.87
2017-11-21T11:08:25.719Z,1004.87
2017-11-21T11:09:35.721Z,1004.84
2017-11-21T11:10:45.419Z,1004.88
2017-11-21T11:11:55.411Z,1004.81
2017-11-21T11:13:05.169Z,1004.82
2017-11-21T11:14:14.879Z,1004.81
2017-11-21T11:15:24.354Z,1004.75
2017-11-21T11:16:34.075Z,1004.72
2017-11-21T11:17:43.813Z,1004.77
2017-11-21T11:18:53.793Z,1004.74
2017-11-21T11:20:03.825Z,1004.73
2017-11-21T11:21:13.283Z,1004.73
2017-11-21T11:22:23.067Z,1004.75
2017-11-21T11:23:33.029Z,1004.7
2017-11-21T11:24:42.991Z,1004.73
2017-11-21T11:25:52.979Z,1004.76
2017-11-21T11:27:02.420Z,1004.76
2017-11-21T11:28:12.389Z,1004.72
2017-11-21T11:29:22.373Z,1004.72
2017-11-21T11:30:31.860Z,1004.74
2017-11-21T11:31:41.584Z,1004.71
2017-11-21T11:32:51.297Z,1004.73
2017-11-21T11:34:01.026Z,1004.67
2017-11-21T11:35:10.474Z,1004.71
2017-11-21T11:36:19.958Z,1004.69
2017-11-21T11:37:29.669Z,1004.71
2017-11-21T11:38:39.489Z,1004.71
2017-11-21T11:39:48.929Z,1004.64
2017-11-21T11:40:58.928Z,1004.67
2017-11-21T11:42:08.922Z,1004.63
2017-11-21T11:43:18.646Z,1004.68
2017-11-21T11:44:28.376Z,1004.65
2017-11-21T11:45:38.347Z,1004.62
2017-11-21T11:46:48.078Z,1004.62
2017-11-21T11:47:58.055Z,1004.61
2017-11-21T11:49:08.030Z,1004.56
2017-11-21T11:50:18.035Z,1004.54
2017-11-21T11:51:27.788Z,1004.56
2017-11-21T11:52:37.021Z,1004.49
2017-11-21T11:53:46.479Z,1004.48
2017-11-21T11:54:56.468Z,1004.46
2017-11-21T11:56:06.179Z,1004.42
2017-11-21T11:57:15.882Z,1004.43
2017-11-21T11:58:25.345Z,1004.45
2017-11-21T11:59:35.064Z,1004.44
2017-11-21T12:00:45.059Z,1004.39
2017-11-21T12:01:54.785Z,1004.37
2017-11-21T12:03:04.490Z,1004.38
2017-11-21T12:04:14.481Z,1004.34
2017-11-21T12:05:23.967Z,1004.38
2017-11-21T12:06:33.700Z,1004.38
2017-11-21T12:07:43.156Z,1004.37
2017-11-21T12:08:52.594Z,1004.38
2017-11-21T12:10:02.588Z,1004.37
2017-11-21T12:11:12.401Z,1004.39
2017-11-21T12:12:22.384Z,1004.39
2017-11-21T12:13:31.850Z,1004.38
2017-11-21T12:14:41.564Z,1004.36
2017-11-21T12:15:51.535Z,1004.37
2017-11-21T12:17:01.265Z,1004.31
2017-11-21T12:18:11.003Z,1004.4
2017-11-21T12:19:20.455Z,1004.44
2017-11-21T12:20:30.448Z,1004.45
2017-11-21T12:21:40.181Z,1004.45
2017-11-21T12:22:50.174Z,1004.49
2017-11-21T12:23:59.649Z,1004.5
2017-11-21T12:25:09.123Z,1004.52
2017-11-21T12:26:19.096Z,1004.49
2017-11-21T12:27:28.854Z,1004.5
2017-11-21T12:28:38.813Z,1004.54
2017-11-21T12:29:48.556Z,1004.54
2017-11-21T12:30:58.278Z,1004.57
2017-11-21T12:32:07.739Z,1004.55
2017-11-21T12:33:17.709Z,1004.58
2017-11-21T12:34:27.702Z,1004.58
2017-11-21T12:35:37.423Z,1004.57
2017-11-21T12:36:47.415Z,1004.61
2017-11-21T12:37:57.400Z,1004.66
2017-11-21T12:39:07.128Z,1004.66
2017-11-21T12:40:17.116Z,1004.65
2017-11-21T12:41:27.132Z,1004.64
2017-11-21T12:42:36.860Z,1004.66
2017-11-21T12:43:46.604Z,1004.62
2017-11-21T12:44:56.078Z,1004.67
2017-11-21T12:46:05.794Z,1004.68
2017-11-21T12:47:15.269Z,1004.66
2017-11-21T12:48:24.713Z,1004.66
2017-11-21T12:49:34.422Z,1004.64
2017-11-21T12:50:44.428Z,1004.66
2017-11-21T12:51:54.424Z,1004.63
2017-11-21T12:53:04.406Z,1004.68
2017-11-21T12:54:14.135Z,1004.67
2017-11-21T12:55:24.157Z,1004.66
2017-11-21T12:56:33.884Z,1004.68
2017-11-21T12:57:44.111Z,1004.7
2017-11-21T12:58:53.848Z,1004.73
2017-11-21T13:00:03.843Z,1004.71
2017-11-21T13:01:13.317Z,1004.74
2017-11-21T13:02:23.127Z,1004.73
2017-11-21T13:03:33.200Z,1004.71
2017-11-21T13:04:43.008Z,1004.71
2017-11-21T13:05:52.800Z,1004.69
2017-11-21T13:07:02.786Z,1004.73
2017-11-21T13:08:12.258Z,1004.69
2017-11-21T13:09:22.240Z,1004.7
2017-11-21T13:10:32.243Z,1004.7
2017-11-21T13:11:42.250Z,1004.71
2017-11-21T13:12:51.698Z,1004.75
2017-11-21T13:14:01.421Z,1004.73
2017-11-21T13:15:11.404Z,1004.63
2017-11-21T13:16:21.384Z,1004.69
2017-11-21T13:17:31.377Z,1004.66
2017-11-21T13:18:41.389Z,1004.67
2017-11-21T13:19:51.595Z,1004.66
2017-11-21T13:21:01.336Z,1004.69
2017-11-21T13:22:11.139Z,1004.69
2017-11-21T13:23:21.157Z,1004.66
2017-11-21T13:24:30.911Z,1004.7
2017-11-21T13:25:40.895Z,1004.71
2017-11-21T13:26:50.615Z,1004.74
2017-11-21T13:28:00.058Z,1004.74
2017-11-21T13:29:10.041Z,1004.79
2017-11-21T13:30:19.877Z,1004.74
2017-11-21T13:31:29.617Z,1004.73
2017-11-21T13:32:39.347Z,1004.71
2017-11-21T13:33:49.055Z,1004.74
2017-11-21T13:34:58.802Z,1004.68
2017-11-21T13:36:08.550Z,1004.66
2017-11-21T13:37:18.540Z,1004.63
2017-11-21T13:38:28.255Z,1004.59
2017-11-21T13:39:37.986Z,1004.57
2017-11-21T13:40:47.715Z,1004.62
2017-11-21T13:41:57.186Z,1004.69
2017-11-21T13:43:06.932Z,1004.73
2017-11-21T13:44:16.915Z,1004.76
2017-11-21T13:45:26.638Z,1004.75
2017-11-21T13:46:36.547Z,1004.76
2017-11-21T13:47:45.993Z,1004.78
2017-11-21T13:48:55.444Z,1004.79
2017-11-21T13:50:05.157Z,1004.81
2017-11-21T13:51:14.389Z,1004.8
2017-11-21T13:52:24.118Z,1004.79
2017-11-21T13:53:33.912Z,1004.76
2017-11-21T13:54:43.619Z,1004.75
2017-11-21T13:55:53.326Z,1004.75
2017-11-21T13:57:02.247Z,1004.75
2017-11-21T13:58:12.213Z,1004.8
2017-11-21T13:59:21.656Z,1004.82
2017-11-21T14:00:31.391Z,1004.79
2017-11-21T14:01:41.371Z,1004.77
2017-11-21T14:02:51.366Z,1004.75
2017-11-21T14:04:01.369Z,1004.74
2017-11-21T14:05:10.851Z,1004.75
2017-11-21T14:06:20.873Z,1004.77
2017-11-21T14:07:30.595Z,1004.83